Time;durP1;ratioP1;P1;durP2;ratioP2;P2;SDS_P1;SDS_P2;PMS_P1;PMS_P2;Temp;Humidity;BMP_temperature;BMP_pressure;BME280_temperature;BME280_humidity;BME280_pressure;Samples;Min_cycle;Max_cycle;Signal;HPM_P1;HPM_P2
2022/11/03 00:00:18;;;;;;;0.50;0.45;;;;;;;;;;4070431;29;20060;-37
2022/11/03 00:02:20;;;;;;;0.68;0.60;;;;;;;;;;4083962;29;20082;-37
2022/11/03 00:04:21;;;;;;;0.50;0.40;;;;;;;;;;4092042;29;20126;-37
2022/11/03 00:06:22;;;;;;;1.33;0.52;;;;;;;;;;4090313;29;20083;-37
2022/11/03 00:08:24;;;;;;;0.95;0.63;;;;;;;;;;4083774;29;20160;-36
2022/11/03 00:10:25;;;;;;;0.60;0.50;;;;;;;;;;4096954;29;20412;-37
2022/11/03 00:12:26;;;;;;;0.80;0.50;;;;;;;;;;4084538;29;20103;-37
2022/11/03 00:14:28;;;;;;;0.93;0.50;;;;;;;;;;4084520;29;20051;-36
2022/11/03 00:16:29;;;;;;;0.77;0.47;;;;;;;;;;4083931;29;20059;-36
2022/11/03 00:18:31;;;;;;;1.95;0.50;;;;;;;;;;4084503;29;20056;-36
2022/11/03 00:20:32;;;;;;;0.30;0.30;;;;;;;;;;4084183;29;20119;-37
2022/11/03 00:22:33;;;;;;;0.68;0.40;;;;;;;;;;4084474;29;20055;-37
2022/11/03 00:24:34;;;;;;;0.68;0.50;;;;;;;;;;4084351;29;20401;-36
2022/11/03 00:26:36;;;;;;;1.05;0.65;;;;;;;;;;4084117;29;20507;-36
2022/11/03 00:28:38;;;;;;;1.02;0.68;;;;;;;;;;4084264;29;20051;-37
2022/11/03 00:30:39;;;;;;;0.45;0.45;;;;;;;;;;4084302;29;20063;-37
2022/11/03 00:32:40;;;;;;;0.40;0.30;;;;;;;;;;4083691;29;20396;-36
2022/11/03 00:34:42;;;;;;;0.70;0.57;;;;;;;;;;4067794;29;20097;-36
2022/11/03 00:36:44;;;;;;;0.60;0.35;;;;;;;;;;4083921;29;20059;-36
2022/11/03 00:38:46;;;;;;;0.88;0.50;;;;;;;;;;4084245;29;20063;-37
2022/11/03 00:41:01;;;;;;;0.70;0.60;;;;;;;;;;4084447;29;20067;-37
2022/11/03 00:43:02;;;;;;;0.60;0.47;;;;;;;;;;4072286;29;20565;-37
2022/11/03 00:45:04;;;;;;;0.47;0.38;;;;;;;;;;4084741;29;20056;-36
2022/11/03 00:47:05;;;;;;;0.40;0.40;;;;;;;;;;4094315;29;20095;-37
2022/11/03 00:49:06;;;;;;;0.95;0.40;;;;;;;;;;4084032;29;20055;-36
2022/11/03 00:51:10;;;;;;;0.77;0.50;;;;;;;;;;4083917;29;20420;-37
2022/11/03 00:53:11;;;;;;;0.50;0.40;;;;;;;;;;4081151;29;20087;-36
2022/11/03 00:55:12;;;;;;;0.40;0.40;;;;;;;;;;4073705;29;20074;-36
2022/11/03 00:57:13;;;;;;;0.80;0.50;;;;;;;;;;4075321;29;20067;-36
2022/11/03 00:59:15;;;;;;;1.55;0.65;;;;;;;;;;4079587;29;20066;-37
2022/11/03 01:01:21;;;;;;;0.73;0.60;;;;;;;;;;4096640;29;20110;-37
2022/11/03 01:03:23;;;;;;;0.73;0.63;;;;;;;;;;4083760;29;20064;-37
2022/11/03 01:07:44;;;;;;;;;;;;;;;;;;4097851;29;20438;-37
2022/11/03 01:09:45;;;;;;;0.73;0.68;;;;;;;;;;4087132;29;19922;-36
2022/11/03 01:12:06;;;;;;;0.40;0.40;;;;;;;;;;4092845;29;20107;-37
2022/11/03 01:14:09;;;;;;;0.65;0.35;;;;;;;;;;4096005;29;20059;-36
2022/11/03 01:16:10;;;;;;;1.95;0.43;;;;;;;;;;4083626;29;20056;-37
2022/11/03 01:18:12;;;;;;;0.60;0.40;;;;;;;;;;4083249;29;20060;-37
2022/11/03 01:20:13;;;;;;;0.35;0.35;;;;;;;;;;4075230;29;20145;-37
2022/11/03 01:22:17;;;;;;;0.90;0.63;;;;;;;;;;4068075;29;20056;-37
2022/11/03 01:24:18;;;;;;;0.60;0.40;;;;;;;;;;4065685;29;20060;-37
2022/11/03 01:26:20;;;;;;;0.50;0.50;;;;;;;;;;4082371;29;20095;-37
2022/11/03 01:28:21;;;;;;;0.88;0.60;;;;;;;;;;4066445;29;20056;-37
2022/11/03 01:30:22;;;;;;;1.02;0.57;;;;;;;;;;4083357;29;20060;-37
2022/11/03 01:32:24;;;;;;;0.77;0.60;;;;;;;;;;4082490;29;20064;-37
2022/11/03 01:34:25;;;;;;;0.57;0.40;;;;;;;;;;4066515;29;20075;-38
2022/11/03 01:36:26;;;;;;;0.80;0.38;;;;;;;;;;4083118;29;20052;-37
2022/11/03 01:38:31;;;;;;;0.40;0.40;;;;;;;;;;4083398;29;20388;-37
2022/11/03 01:40:33;;;;;;;0.75;0.50;;;;;;;;;;4096161;29;20066;-36
2022/11/03 01:42:34;;;;;;;0.40;0.40;;;;;;;;;;4079175;29;20060;-36
2022/11/03 01:44:36;;;;;;;1.00;0.50;;;;;;;;;;4074881;29;20087;-38
2022/11/03 01:46:41;;;;;;;0.68;0.35;;;;;;;;;;4081512;29;20531;-36
2022/11/03 01:48:59;;;;;;;0.82;0.50;;;;;;;;;;4080984;29;20066;-37
2022/11/03 01:51:02;;;;;;;0.45;0.43;;;;;;;;;;4083072;29;20122;-36
2022/11/03 01:53:03;;;;;;;0.60;0.40;;;;;;;;;;4082081;29;20059;-37
2022/11/03 01:55:23;;;;;;;0.40;0.40;;;;;;;;;;4093996;29;20055;-36
2022/11/03 01:57:33;;;;;;;0.45;0.45;;;;;;;;;;4075289;29;20423;-36
2022/11/03 01:59:35;;;;;;;0.63;0.40;;;;;;;;;;4090121;29;20459;-37
2022/11/03 02:01:36;;;;;;;0.65;0.43;;;;;;;;;;4082680;29;20060;-36
2022/11/03 02:03:42;;;;;;;0.52;0.38;;;;;;;;;;4037876;29;20515;-36
2022/11/03 02:05:44;;;;;;;0.90;0.45;;;;;;;;;;4072524;29;20052;-36
2022/11/03 02:07:50;;;;;;;0.55;0.50;;;;;;;;;;4074373;29;20064;-37
2022/11/03 02:09:51;;;;;;;0.40;0.30;;;;;;;;;;4066114;29;20052;-37
2022/11/03 02:12:07;;;;;;;0.93;0.50;;;;;;;;;;4065584;29;20060;-36
2022/11/03 02:14:14;;;;;;;0.40;0.30;;;;;;;;;;4067393;29;20060;-36
2022/11/03 02:16:16;;;;;;;0.93;0.50;;;;;;;;;;4059011;29;20531;-39
2022/11/03 02:18:20;;;;;;;0.80;0.40;;;;;;;;;;4072009;29;20066;-36
2022/11/03 02:20:24;;;;;;;0.82;0.65;;;;;;;;;;4081401;29;20059;-36
2022/11/03 02:22:39;;;;;;;0.30;0.30;;;;;;;;;;4066422;29;20250;-36
2022/11/03 02:24:52;;;;;;;0.40;0.30;;;;;;;;;;4050294;29;20424;-37
2022/11/03 02:26:54;;;;;;;0.93;0.40;;;;;;;;;;4049768;29;20049;-36
2022/11/03 02:28:56;;;;;;;0.85;0.50;;;;;;;;;;4054243;29;20063;-36
2022/11/03 02:31:16;;;;;;;0.47;0.40;;;;;;;;;;4075769;29;20088;-36
2022/11/03 02:33:49;;;;;;;0.65;0.52;;;;;;;;;;4065449;29;20056;-36
2022/11/03 02:36:10;;;;;;;0.50;0.43;;;;;;;;;;4057104;29;20067;-37
2022/11/03 02:38:13;;;;;;;0.60;0.40;;;;;;;;;;4050312;29;20108;-37
2022/11/03 02:40:23;;;;;;;0.40;0.30;;;;;;;;;;4069821;29;20048;-36
2022/11/03 02:42:24;;;;;;;0.43;0.40;;;;;;;;;;4081424;29;20062;-36
2022/11/03 02:44:27;;;;;;;0.98;0.65;;;;;;;;;;4055973;29;20061;-36
2022/11/03 02:46:29;;;;;;;0.65;0.40;;;;;;;;;;4079177;29;20118;-37
2022/11/03 02:48:31;;;;;;;0.73;0.40;;;;;;;;;;4068854;29;20090;-36
2022/11/03 02:50:33;;;;;;;0.65;0.40;;;;;;;;;;4082525;29;20462;-36
2022/11/03 02:52:39;;;;;;;0.73;0.40;;;;;;;;;;4056449;29;20060;-36
2022/11/03 02:54:43;;;;;;;0.57;0.43;;;;;;;;;;4055105;29;20056;-36
2022/11/03 02:57:10;;;;;;;0.38;0.30;;;;;;;;;;4078062;29;20052;-36
2022/11/03 02:59:14;;;;;;;0.68;0.57;;;;;;;;;;4066719;29;20488;-37
2022/11/03 03:01:33;;;;;;;0.50;0.30;;;;;;;;;;4049570;29;20497;-38
2022/11/03 03:03:40;;;;;;;0.73;0.50;;;;;;;;;;4080232;29;20111;-36
2022/11/03 03:05:43;;;;;;;0.40;0.40;;;;;;;;;;4081713;29;20384;-37
2022/11/03 03:07:46;;;;;;;0.70;0.50;;;;;;;;;;4077047;29;20148;-36
2022/11/03 03:09:57;;;;;;;0.57;0.40;;;;;;;;;;4086349;29;20106;-36
2022/11/03 03:11:59;;;;;;;0.50;0.50;;;;;;;;;;4081665;29;20056;-37
2022/11/03 03:14:03;;;;;;;0.63;0.43;;;;;;;;;;4078183;29;20083;-36
2022/11/03 03:16:11;;;;;;;0.40;0.30;;;;;;;;;;4058021;29;20453;-37
2022/11/03 03:18:26;;;;;;;0.30;0.30;;;;;;;;;;4070735;29;20123;-36
2022/11/03 03:20:33;;;;;;;0.82;0.50;;;;;;;;;;4086579;29;20110;-37
2022/11/03 03:22:51;;;;;;;0.73;0.50;;;;;;;;;;4093924;29;20055;-41
2022/11/03 03:24:58;;;;;;;0.35;0.35;;;;;;;;;;4043591;29;20120;-37
2022/11/03 03:27:01;;;;;;;0.50;0.50;;;;;;;;;;4059876;29;20119;-36
2022/11/03 03:29:10;;;;;;;0.50;0.50;;;;;;;;;;4065357;29;20056;-36
2022/11/03 03:31:13;;;;;;;0.60;0.57;;;;;;;;;;4078209;29;20108;-37
2022/11/03 03:33:16;;;;;;;0.40;0.30;;;;;;;;;;4073332;29;20131;-36
2022/11/03 03:35:21;;;;;;;0.90;0.40;;;;;;;;;;4094988;29;20062;-36
2022/11/03 03:37:23;;;;;;;0.40;0.40;;;;;;;;;;4086130;29;20467;-36
2022/11/03 03:39:27;;;;;;;0.73;0.57;;;;;;;;;;4085014;29;20388;-36
2022/11/03 03:41:31;;;;;;;0.45;0.35;;;;;;;;;;4052419;29;20064;-37
2022/11/03 03:43:33;;;;;;;0.52;0.32;;;;;;;;;;4085147;29;20110;-36
2022/11/03 03:45:35;;;;;;;0.45;0.40;;;;;;;;;;4067611;29;20077;-36
2022/11/03 03:47:37;;;;;;;0.55;0.50;;;;;;;;;;4067644;29;20511;-36
2022/11/03 03:49:38;;;;;;;0.50;0.40;;;;;;;;;;4077072;29;20060;-36
2022/11/03 03:51:39;;;;;;;0.57;0.40;;;;;;;;;;4072188;29;20102;-36
2022/11/03 03:53:41;;;;;;;0.55;0.40;;;;;;;;;;4084690;29;20123;-36
2022/11/03 03:55:45;;;;;;;1.35;0.47;;;;;;;;;;4084787;29;20107;-36
2022/11/03 03:57:46;;;;;;;0.50;0.40;;;;;;;;;;4068038;29;20072;-36
2022/11/03 03:59:48;;;;;;;0.40;0.40;;;;;;;;;;4085266;29;20074;-36
2022/11/03 04:01:49;;;;;;;0.55;0.40;;;;;;;;;;4083315;29;20060;-36
2022/11/03 04:03:50;;;;;;;0.35;0.35;;;;;;;;;;4069037;29;20060;-36
2022/11/03 04:05:52;;;;;;;0.70;0.45;;;;;;;;;;4078168;29;20103;-36
2022/11/03 04:07:54;;;;;;;0.60;0.55;;;;;;;;;;4067234;29;20443;-36
2022/11/03 04:09:55;;;;;;;0.40;0.40;;;;;;;;;;4068002;29;20120;-36
2022/11/03 04:23:35;;;;;;;0.57;0.30;;;;;;;;;;4084442;29;20461;-36
2022/11/03 04:25:37;;;;;;;0.75;0.60;;;;;;;;;;4084266;29;20615;-36
2022/11/03 04:27:40;;;;;;;0.70;0.40;;;;;;;;;;4083429;29;20084;-36
2022/11/03 04:29:41;;;;;;;0.90;0.43;;;;;;;;;;4084644;29;20105;-36
2022/11/03 04:31:43;;;;;;;0.75;0.50;;;;;;;;;;4083812;29;20052;-36
2022/11/03 04:33:44;;;;;;;0.40;0.40;;;;;;;;;;4067748;29;20115;-36
2022/11/03 04:35:46;;;;;;;0.95;0.30;;;;;;;;;;4090654;29;20062;-36
2022/11/03 04:37:55;;;;;;;0.40;0.38;;;;;;;;;;4090474;29;20079;-36
2022/11/03 04:40:01;;;;;;;1.10;0.60;;;;;;;;;;4071318;29;20060;-36
2022/11/03 04:42:13;;;;;;;0.55;0.40;;;;;;;;;;4071158;29;20471;-38
2022/11/03 04:44:15;;;;;;;0.30;0.22;;;;;;;;;;4074536;29;20080;-37
2022/11/03 04:46:24;;;;;;;0.50;0.40;;;;;;;;;;4082610;29;20106;-37
2022/11/03 04:48:27;;;;;;;1.02;0.40;;;;;;;;;;4067167;29;20115;-37
2022/11/03 04:50:28;;;;;;;0.65;0.47;;;;;;;;;;4067173;29;20088;-37
2022/11/03 04:52:29;;;;;;;0.40;0.32;;;;;;;;;;4092951;29;20113;-36
2022/11/03 04:54:30;;;;;;;1.02;0.40;;;;;;;;;;4069868;29;20067;-37
2022/11/03 04:56:32;;;;;;;1.08;0.45;;;;;;;;;;4086787;29;20051;-37
2022/11/03 04:58:35;;;;;;;0.63;0.50;;;;;;;;;;4094045;29;20122;-36
2022/11/03 05:00:36;;;;;;;0.63;0.40;;;;;;;;;;4084084;29;20063;-36
2022/11/03 05:02:37;;;;;;;0.75;0.47;;;;;;;;;;4095348;29;20423;-37
2022/11/03 05:04:39;;;;;;;0.63;0.40;;;;;;;;;;4076563;29;20060;-40
2022/11/03 05:06:50;;;;;;;0.57;0.32;;;;;;;;;;4087080;29;20110;-37
2022/11/03 05:08:55;;;;;;;0.65;0.38;;;;;;;;;;4090081;29;20434;-37
2022/11/03 05:10:58;;;;;;;0.73;0.60;;;;;;;;;;4083861;29;20107;-41
2022/11/03 05:12:59;;;;;;;0.90;0.40;;;;;;;;;;4096503;29;20055;-36
2022/11/03 05:15:06;;;;;;;0.47;0.43;;;;;;;;;;4088696;29;20052;-36
2022/11/03 05:17:23;;;;;;;0.40;0.32;;;;;;;;;;4088999;29;20063;-36
2022/11/03 05:19:29;;;;;;;0.55;0.40;;;;;;;;;;4095032;29;20055;-37
2022/11/03 05:21:30;;;;;;;0.30;0.30;;;;;;;;;;4082227;29;20115;-37
2022/11/03 05:23:36;;;;;;;0.40;0.30;;;;;;;;;;4058257;29;20414;-36
2022/11/03 05:25:41;;;;;;;0.88;0.35;;;;;;;;;;4063232;29;20047;-37
2022/11/03 05:27:43;;;;;;;0.70;0.40;;;;;;;;;;4083348;29;20463;-37
2022/11/03 05:29:45;;;;;;;0.45;0.40;;;;;;;;;;4083515;29;20056;-37
2022/11/03 05:31:47;;;;;;;0.60;0.40;;;;;;;;;;4073994;29;20059;-36
2022/11/03 05:33:50;;;;;;;0.43;0.35;;;;;;;;;;4066616;29;20063;-37
2022/11/03 05:35:52;;;;;;;0.40;0.40;;;;;;;;;;4067925;29;20052;-37
2022/11/03 05:37:53;;;;;;;0.75;0.50;;;;;;;;;;4070080;29;20568;-36
2022/11/03 05:39:57;;;;;;;0.38;0.30;;;;;;;;;;4075590;29;20064;-36
2022/11/03 05:41:59;;;;;;;0.60;0.50;;;;;;;;;;4070973;29;20064;-36
2022/11/03 05:44:02;;;;;;;0.32;0.32;;;;;;;;;;4081348;29;20423;-37
2022/11/03 05:46:03;;;;;;;0.60;0.40;;;;;;;;;;4083238;29;20052;-37
2022/11/03 05:48:34;;;;;;;0.43;0.30;;;;;;;;;;4082704;29;20110;-37
2022/11/03 05:50:35;;;;;;;0.40;0.38;;;;;;;;;;4082845;29;20055;-37
2022/11/03 05:52:37;;;;;;;0.70;0.70;;;;;;;;;;4066031;29;20456;-36
2022/11/03 05:54:38;;;;;;;0.60;0.40;;;;;;;;;;4091900;29;20110;-36
2022/11/03 05:56:39;;;;;;;0.30;0.30;;;;;;;;;;4087180;29;20459;-37
2022/11/03 05:58:42;;;;;;;0.38;0.30;;;;;;;;;;4078738;29;20118;-37
2022/11/03 06:00:43;;;;;;;0.43;0.30;;;;;;;;;;4065201;29;20491;-37
2022/11/03 06:02:45;;;;;;;0.60;0.50;;;;;;;;;;4075111;29;20080;-36
2022/11/03 06:04:48;;;;;;;0.60;0.43;;;;;;;;;;4064117;29;20070;-36
2022/11/03 06:06:54;;;;;;;0.73;0.50;;;;;;;;;;4080009;29;20111;-37
2022/11/03 06:08:57;;;;;;;0.30;0.30;;;;;;;;;;4067733;29;20103;-36
2022/11/03 06:10:58;;;;;;;0.75;0.50;;;;;;;;;;4080943;29;20056;-38
2022/11/03 06:13:28;;;;;;;0.45;0.30;;;;;;;;;;4082027;29;20116;-37
2022/11/03 06:15:33;;;;;;;;;;;;;;;;;;4078084;29;20048;-36
2022/11/03 06:17:34;;;;;;;0.30;0.20;;;;;;;;;;4084149;29;20436;-37
2022/11/03 06:19:41;;;;;;;0.40;0.30;;;;;;;;;;4080070;29;20059;-37
2022/11/03 06:21:43;;;;;;;0.50;0.38;;;;;;;;;;4065770;29;20067;-37
2022/11/03 06:23:44;;;;;;;0.52;0.32;;;;;;;;;;4068763;29;20062;-37
2022/11/03 06:25:46;;;;;;;0.50;0.35;;;;;;;;;;4085036;29;20048;-36
2022/11/03 06:27:48;;;;;;;0.47;0.30;;;;;;;;;;4066369;29;20056;-36
2022/11/03 06:29:52;;;;;;;0.30;0.30;;;;;;;;;;4082580;29;20059;-36
2022/11/03 06:31:56;;;;;;;0.28;0.25;;;;;;;;;;4084989;29;20443;-36
2022/11/03 06:33:58;;;;;;;0.90;0.40;;;;;;;;;;4075578;29;20062;-36
2022/11/03 06:36:12;;;;;;;0.40;0.32;;;;;;;;;;4077005;29;20541;-37
2022/11/03 06:38:17;;;;;;;0.75;0.30;;;;;;;;;;4079587;29;20055;-36
2022/11/03 06:40:19;;;;;;;0.85;0.30;;;;;;;;;;4081127;29;20110;-36
2022/11/03 06:42:21;;;;;;;0.70;0.40;;;;;;;;;;4074945;29;20576;-37
2022/11/03 06:44:24;;;;;;;0.40;0.38;;;;;;;;;;4081190;29;20055;-36
2022/11/03 06:46:26;;;;;;;0.38;0.32;;;;;;;;;;4077791;29;20062;-37
2022/11/03 06:48:28;;;;;;;0.50;0.38;;;;;;;;;;4087803;29;20114;-36
2022/11/03 06:50:33;;;;;;;0.55;0.30;;;;;;;;;;4059866;29;20308;-36
2022/11/03 06:52:36;;;;;;;0.50;0.50;;;;;;;;;;4072668;29;20060;-36
2022/11/03 06:54:39;;;;;;;0.55;0.30;;;;;;;;;;4066749;29;20063;-36
2022/11/03 06:56:40;;;;;;;0.52;0.28;;;;;;;;;;4079673;29;20111;-36
2022/11/03 06:58:42;;;;;;;0.32;0.30;;;;;;;;;;4083608;29;20105;-36
2022/11/03 07:00:43;;;;;;;0.47;0.30;;;;;;;;;;4081008;29;20079;-36
2022/11/03 07:03:06;;;;;;;0.38;0.35;;;;;;;;;;4081663;29;20060;-37
2022/11/03 07:05:17;;;;;;;0.45;0.30;;;;;;;;;;4077456;29;20047;-36
2022/11/03 07:07:18;;;;;;;;;;;;;;;;;;4077550;29;20056;-36
2022/11/03 07:09:38;;;;;;;0.45;0.30;;;;;;;;;;4067605;29;19985;-36
2022/11/03 07:11:48;;;;;;;0.30;0.30;;;;;;;;;;4081269;29;20534;-37
2022/11/03 07:14:11;;;;;;;1.77;0.43;;;;;;;;;;4074678;29;20616;-38
2022/11/03 07:16:25;;;;;;;0.65;0.20;;;;;;;;;;4067946;29;20102;-38
2022/11/03 07:18:34;;;;;;;0.43;0.32;;;;;;;;;;4070361;29;20055;-37
2022/11/03 07:20:35;;;;;;;0.68;0.40;;;;;;;;;;4071764;29;20103;-37
2022/11/03 07:22:36;;;;;;;0.32;0.32;;;;;;;;;;4069621;29;20110;-36
2022/11/03 07:24:40;;;;;;;1.42;0.40;;;;;;;;;;4059181;29;20095;-36
2022/11/03 07:26:41;;;;;;;1.05;0.57;;;;;;;;;;4077848;29;20522;-36
2022/11/03 07:28:43;;;;;;;0.70;0.35;;;;;;;;;;4077366;29;20126;-36
2022/11/03 07:30:44;;;;;;;0.70;0.30;;;;;;;;;;4057500;29;20079;-37
2022/11/03 07:32:48;;;;;;;0.65;0.20;;;;;;;;;;4071676;29;20527;-37
2022/11/03 07:34:51;;;;;;;0.50;0.38;;;;;;;;;;4072563;29;20150;-36
2022/11/03 07:36:55;;;;;;;2.20;0.50;;;;;;;;;;4067734;29;20071;-36
2022/11/03 07:38:59;;;;;;;0.30;0.25;;;;;;;;;;4055523;29;20198;-37
2022/11/03 07:41:00;;;;;;;0.65;0.47;;;;;;;;;;4070759;29;20122;-37
2022/11/03 07:43:17;;;;;;;0.77;0.40;;;;;;;;;;4067688;29;20088;-37
2022/11/03 07:45:40;;;;;;;2.42;0.28;;;;;;;;;;4058977;29;20055;-37
2022/11/03 07:47:42;;;;;;;0.70;0.40;;;;;;;;;;4057067;29;20499;-37
2022/11/03 07:49:44;;;;;;;1.05;0.30;;;;;;;;;;4064714;29;20107;-37
2022/11/03 07:51:46;;;;;;;0.52;0.30;;;;;;;;;;4057409;29;20480;-37
2022/11/03 07:53:50;;;;;;;1.08;0.50;;;;;;;;;;4045328;29;20199;-36
2022/11/03 07:55:54;;;;;;;0.52;0.30;;;;;;;;;;4058267;29;20063;-37
2022/11/03 07:57:55;;;;;;;1.85;0.30;;;;;;;;;;4052973;29;20127;-38
2022/11/03 08:00:00;;;;;;;1.85;0.20;;;;;;;;;;4058414;29;20059;-38
2022/11/03 08:02:19;;;;;;;1.35;0.20;;;;;;;;;;4062380;29;20498;-42
2022/11/03 08:04:22;;;;;;;1.02;0.40;;;;;;;;;;4052564;29;20064;-37
2022/11/03 08:06:24;;;;;;;0.85;0.52;;;;;;;;;;4055516;29;20056;-39
2022/11/03 08:08:25;;;;;;;0.60;0.55;;;;;;;;;;4067405;29;20051;-38
2022/11/03 08:10:26;;;;;;;1.83;0.30;;;;;;;;;;4057705;29;20115;-37
2022/11/03 08:12:27;;;;;;;1.30;0.40;;;;;;;;;;4059690;29;20115;-37
2022/11/03 08:14:30;;;;;;;1.55;0.30;;;;;;;;;;4067561;29;20667;-37
2022/11/03 08:16:31;;;;;;;0.30;0.30;;;;;;;;;;4047864;29;20107;-38
2022/11/03 08:18:33;;;;;;;1.35;0.55;;;;;;;;;;4063189;29;20436;-37
2022/11/03 08:20:34;;;;;;;0.40;0.30;;;;;;;;;;4067997;29;20055;-37
2022/11/03 08:22:35;;;;;;;0.50;0.40;;;;;;;;;;4069210;29;20104;-38
2022/11/03 08:24:37;;;;;;;0.50;0.30;;;;;;;;;;4070201;29;20062;-38
2022/11/03 08:26:38;;;;;;;1.17;0.30;;;;;;;;;;4061869;29;20131;-38
2022/11/03 08:28:39;;;;;;;0.43;0.30;;;;;;;;;;4062654;29;20083;-38
2022/11/03 08:30:40;;;;;;;0.70;0.22;;;;;;;;;;4054309;29;20060;-39
2022/11/03 08:32:42;;;;;;;2.83;0.32;;;;;;;;;;4058868;29;20059;-42
2022/11/03 08:34:43;;;;;;;1.00;0.30;;;;;;;;;;4061907;29;20147;-46
2022/11/03 08:36:45;;;;;;;1.00;0.40;;;;;;;;;;4063623;29;22380;-43
2022/11/03 08:38:46;;;;;;;1.40;0.30;;;;;;;;;;4056697;29;20123;-42
2022/11/03 08:40:47;;;;;;;2.05;0.30;;;;;;;;;;4058787;29;20056;-43
2022/11/03 08:42:49;;;;;;;0.43;0.30;;;;;;;;;;4061881;29;20063;-43
2022/11/03 08:44:50;;;;;;;1.00;0.32;;;;;;;;;;4049586;29;20859;-44
2022/11/03 08:46:51;;;;;;;0.45;0.30;;;;;;;;;;4041190;29;20342;-42
2022/11/03 08:48:52;;;;;;;1.40;0.32;;;;;;;;;;4059490;29;20055;-43
2022/11/03 08:50:54;;;;;;;0.90;0.40;;;;;;;;;;4063170;29;20078;-44
2022/11/03 08:52:56;;;;;;;0.88;0.35;;;;;;;;;;4039461;29;20569;-44
2022/11/03 08:54:57;;;;;;;1.70;0.55;;;;;;;;;;4059820;29;20094;-43
2022/11/03 08:56:58;;;;;;;0.88;0.35;;;;;;;;;;4063361;29;21054;-43
2022/11/03 08:58:59;;;;;;;0.50;0.30;;;;;;;;;;4058142;29;20118;-43
2022/11/03 09:01:01;;;;;;;1.13;0.43;;;;;;;;;;4066255;29;20063;-44
2022/11/03 09:03:02;;;;;;;0.43;0.20;;;;;;;;;;4067612;29;20063;-44
2022/11/03 09:05:04;;;;;;;0.20;0.20;;;;;;;;;;4028911;29;20128;-44
2022/11/03 09:07:06;;;;;;;0.88;0.43;;;;;;;;;;4066683;29;20523;-44
2022/11/03 09:09:07;;;;;;;3.85;0.38;;;;;;;;;;4066969;29;20066;-43
2022/11/03 09:11:08;;;;;;;0.88;0.40;;;;;;;;;;4065307;29;20385;-43
2022/11/03 09:13:10;;;;;;;0.40;0.20;;;;;;;;;;4064869;29;20755;-44
2022/11/03 09:15:11;;;;;;;0.60;0.40;;;;;;;;;;4065562;29;20051;-43
2022/11/03 09:17:12;;;;;;;1.08;0.20;;;;;;;;;;4059771;29;20426;-41
2022/11/03 09:19:14;;;;;;;0.75;0.38;;;;;;;;;;4061753;29;20145;-42
2022/11/03 09:21:15;;;;;;;0.73;0.30;;;;;;;;;;4064374;29;20060;-42
2022/11/03 09:23:17;;;;;;;1.45;0.30;;;;;;;;;;4062027;29;21029;-41
2022/11/03 09:25:18;;;;;;;0.60;0.35;;;;;;;;;;4060701;29;20415;-42
2022/11/03 09:27:19;;;;;;;7.40;1.77;;;;;;;;;;4062110;29;20495;-41
2022/11/03 09:29:21;;;;;;;16.27;2.25;;;;;;;;;;4041134;29;20064;-41
2022/11/03 09:31:24;;;;;;;15.88;2.50;;;;;;;;;;4056901;29;20519;-41
2022/11/03 09:33:25;;;;;;;8.95;1.67;;;;;;;;;;4061528;29;20056;-41
2022/11/03 09:35:27;;;;;;;11.32;2.05;;;;;;;;;;4066136;29;20166;-42
2022/11/03 09:37:28;;;;;;;10.70;1.80;;;;;;;;;;4061927;29;20606;-42
2022/11/03 09:39:30;;;;;;;13.18;1.60;;;;;;;;;;4063418;29;20139;-41
2022/11/03 09:41:31;;;;;;;9.15;1.50;;;;;;;;;;4066822;29;20056;-42
2022/11/03 09:43:32;;;;;;;6.85;1.17;;;;;;;;;;4066984;29;20146;-43
2022/11/03 09:45:34;;;;;;;4.28;1.00;;;;;;;;;;4058699;29;20099;-42
2022/11/03 09:47:37;;;;;;;2.35;0.73;;;;;;;;;;4042693;29;20147;-43
2022/11/03 09:49:38;;;;;;;2.90;0.75;;;;;;;;;;4065982;29;20063;-41
2022/11/03 09:51:40;;;;;;;5.53;1.08;;;;;;;;;;4062327;29;20067;-42
2022/11/03 09:53:42;;;;;;;4.53;0.80;;;;;;;;;;4049640;29;22123;-41
2022/11/03 09:55:43;;;;;;;3.92;1.02;;;;;;;;;;4060082;29;20110;-42
2022/11/03 09:57:45;;;;;;;2.50;0.60;;;;;;;;;;4042034;29;20124;-42
2022/11/03 09:59:48;;;;;;;1.45;0.40;;;;;;;;;;4051838;29;20452;-42
2022/11/03 10:01:52;;;;;;;5.40;1.17;;;;;;;;;;4054794;29;20106;-42
2022/11/03 10:04:00;;;;;;;4.18;0.70;;;;;;;;;;4057688;29;20064;-43
2022/11/03 10:06:02;;;;;;;2.78;0.70;;;;;;;;;;4060633;29;20051;-42
2022/11/03 10:08:06;;;;;;;3.25;0.80;;;;;;;;;;4041068;29;20064;-42
2022/11/03 10:10:14;;;;;;;2.20;0.55;;;;;;;;;;4059279;29;20071;-42
2022/11/03 10:12:16;;;;;;;1.45;0.57;;;;;;;;;;4056374;29;20075;-42
2022/11/03 10:14:17;;;;;;;2.22;0.50;;;;;;;;;;4054113;29;20060;-43
2022/11/03 10:16:21;;;;;;;1.38;0.43;;;;;;;;;;4048896;29;20103;-41
2022/11/03 10:18:23;;;;;;;0.70;0.43;;;;;;;;;;4050012;29;20091;-42
2022/11/03 10:20:26;;;;;;;4.40;0.50;;;;;;;;;;4067634;29;20361;-42
2022/11/03 10:22:28;;;;;;;3.47;0.50;;;;;;;;;;4038332;29;20496;-41
2022/11/03 10:24:29;;;;;;;1.77;0.60;;;;;;;;;;4041881;29;21423;-41
2022/11/03 10:26:48;;;;;;;1.00;0.45;;;;;;;;;;4055745;29;20130;-42
2022/11/03 10:28:58;;;;;;;0.73;0.43;;;;;;;;;;4062064;29;20601;-42
2022/11/03 10:31:05;;;;;;;2.15;0.73;;;;;;;;;;4063001;29;20067;-41
2022/11/03 10:33:24;;;;;;;1.90;0.63;;;;;;;;;;4065944;29;20123;-43
2022/11/03 10:35:33;;;;;;;4.20;0.63;;;;;;;;;;4070617;29;20522;-42
2022/11/03 10:37:37;;;;;;;0.80;0.40;;;;;;;;;;4065626;29;20693;-41
2022/11/03 10:39:39;;;;;;;2.05;0.88;;;;;;;;;;4059472;29;20055;-42
2022/11/03 10:41:54;;;;;;;2.42;1.13;;;;;;;;;;4052173;29;20060;-43
2022/11/03 10:44:12;;;;;;;1.33;0.32;;;;;;;;;;4069066;29;20114;-43
2022/11/03 10:46:18;;;;;;;1.65;0.55;;;;;;;;;;4066471;29;20055;-42
2022/11/03 10:48:19;;;;;;;1.48;0.60;;;;;;;;;;4064676;29;20064;-42
2022/11/03 10:50:24;;;;;;;2.45;0.40;;;;;;;;;;4066327;29;20067;-44
2022/11/03 10:52:28;;;;;;;0.82;0.57;;;;;;;;;;4069755;29;20089;-42
2022/11/03 10:54:35;;;;;;;0.57;0.40;;;;;;;;;;4068467;29;20059;-42
2022/11/03 10:56:36;;;;;;;2.22;0.50;;;;;;;;;;4045171;29;20064;-42
2022/11/03 10:58:38;;;;;;;0.85;0.52;;;;;;;;;;4053557;29;20504;-40
2022/11/03 11:00:41;;;;;;;1.13;0.50;;;;;;;;;;4068303;29;20071;-40
2022/11/03 11:02:43;;;;;;;1.30;0.40;;;;;;;;;;4067935;29;20056;-41
2022/11/03 11:04:50;;;;;;;1.13;0.50;;;;;;;;;;4051692;29;20488;-41
2022/11/03 11:06:52;;;;;;;1.10;0.65;;;;;;;;;;4067640;29;20127;-41
2022/11/03 11:08:58;;;;;;;0.80;0.50;;;;;;;;;;4069346;29;20114;-40
2022/11/03 11:11:05;;;;;;;1.38;0.60;;;;;;;;;;4069704;29;21216;-40
2022/11/03 11:13:20;;;;;;;1.58;0.50;;;;;;;;;;4053019;29;20056;-40
2022/11/03 11:15:35;;;;;;;0.82;0.43;;;;;;;;;;4068191;29;20059;-40
2022/11/03 11:17:36;;;;;;;0.90;0.47;;;;;;;;;;4054257;29;20059;-40
2022/11/03 11:20:21;;;;;;;1.38;0.52;;;;;;;;;;4066253;29;20341;-41
2022/11/03 11:22:22;;;;;;;0.70;0.30;;;;;;;;;;4045439;29;20067;-40
2022/11/03 11:24:42;;;;;;;1.40;0.60;;;;;;;;;;4062356;29;20514;-41
2022/11/03 11:26:46;;;;;;;1.70;0.50;;;;;;;;;;4068232;29;20104;-41
2022/11/03 11:29:07;;;;;;;1.27;0.50;;;;;;;;;;4049415;29;20056;-41
2022/11/03 11:31:56;;;;;;;2.05;0.65;;;;;;;;;;4062858;29;20063;-40
2022/11/03 11:34:09;;;;;;;1.15;0.43;;;;;;;;;;4059704;29;20514;-41
2022/11/03 11:36:23;;;;;;;0.52;0.40;;;;;;;;;;4066947;29;20826;-40
2022/11/03 11:38:56;;;;;;;1.60;0.45;;;;;;;;;;4058054;29;20108;-40
2022/11/03 11:40:57;;;;;;;1.42;0.57;;;;;;;;;;4068615;29;20063;-40
2022/11/03 11:43:01;;;;;;;1.30;0.55;;;;;;;;;;4063084;29;20067;-41
2022/11/03 11:45:04;;;;;;;1.00;0.40;;;;;;;;;;4067973;29;20488;-41
2022/11/03 11:47:26;;;;;;;0.75;0.40;;;;;;;;;;4058901;29;20776;-41
2022/11/03 11:49:27;;;;;;;1.42;0.40;;;;;;;;;;4041798;29;20091;-41
2022/11/03 11:51:32;;;;;;;0.65;0.40;;;;;;;;;;4058540;29;20074;-41
2022/11/03 11:53:39;;;;;;;0.80;0.75;;;;;;;;;;4058491;29;20060;-40
2022/11/03 11:55:54;;;;;;;0.63;0.30;;;;;;;;;;4059216;29;20471;-40
2022/11/03 11:57:55;;;;;;;1.55;0.40;;;;;;;;;;4066581;29;20835;-41
2022/11/03 11:59:57;;;;;;;2.13;0.40;;;;;;;;;;4038110;29;20086;-38
2022/11/03 12:01:58;;;;;;;1.02;0.40;;;;;;;;;;4045783;29;20734;-37
2022/11/03 12:04:06;;;;;;;2.40;0.40;;;;;;;;;;4052626;29;20468;-36
2022/11/03 12:06:08;;;;;;;0.68;0.30;;;;;;;;;;4067921;29;21015;-35
2022/11/03 12:08:17;;;;;;;0.75;0.20;;;;;;;;;;4050925;29;20108;-36
2022/11/03 12:10:25;;;;;;;1.13;0.40;;;;;;;;;;4063408;29;20118;-37
2022/11/03 12:12:32;;;;;;;0.90;0.40;;;;;;;;;;4061219;29;20060;-38
2022/11/03 12:14:35;;;;;;;0.70;0.40;;;;;;;;;;4061705;29;20059;-37
2022/11/03 12:16:37;;;;;;;0.52;0.30;;;;;;;;;;4062383;29;20409;-37
2022/11/03 12:18:42;;;;;;;0.57;0.40;;;;;;;;;;4069015;29;21549;-35
2022/11/03 12:20:45;;;;;;;1.77;0.50;;;;;;;;;;4065984;29;20088;-37
2022/11/03 12:22:47;;;;;;;0.80;0.43;;;;;;;;;;4027692;29;20061;-39
2022/11/03 12:24:50;;;;;;;0.63;0.40;;;;;;;;;;4062017;29;20723;-39
2022/11/03 12:26:51;;;;;;;1.17;0.47;;;;;;;;;;4062460;29;20056;-36
2022/11/03 12:28:53;;;;;;;1.80;0.52;;;;;;;;;;4062521;29;20278;-38
2022/11/03 12:30:54;;;;;;;1.27;0.57;;;;;;;;;;4066655;29;20497;-37
2022/11/03 12:32:56;;;;;;;1.58;0.43;;;;;;;;;;4059451;29;20082;-37
2022/11/03 12:34:58;;;;;;;0.50;0.30;;;;;;;;;;4062207;29;21387;-40
2022/11/03 12:36:59;;;;;;;0.68;0.38;;;;;;;;;;4061273;29;20059;-38
2022/11/03 12:39:00;;;;;;;0.57;0.40;;;;;;;;;;4058432;29;20110;-38
2022/11/03 12:41:20;;;;;;;1.00;0.38;;;;;;;;;;4058446;29;20056;-37